Reynolds, North Dakota
Current Conditions -  °F | °C
As of 2:53 AM on Thursday 23 Oct 2014 (Local Time) from KGFK Reporting Station
Overcast Overcast  
Wind Chill: 44°   Ceiling: 8000
Heat Index: 48°   Visibility: 10mi
Dew Point: 45°   Wind: 8mph
Humidity: 89%   Direction: 220°SW
Pressure: 29.84"   Gusts: NA
Location:  47.67°N, 97.11°W
Report Text: KGFK 230753Z AUTO 22007KT 10SM OVC080 09/07 A2984 RMK AO2 SLP107 T00890072 TSNO
Loading
Personal Weather Stations






























Interactive Weather Map New forecast layout! Learn more

10-Day Weather Forecast

Advertisements
Track Severe Weather on mobile